createdAt,value
2017-01-20T00:00:00.591Z,1032.18
2017-01-20T00:01:11.989Z,1032.21
2017-01-20T00:02:23.374Z,1032.2
2017-01-20T00:03:34.768Z,1032.2
2017-01-20T00:04:46.220Z,1032.18
2017-01-20T00:05:57.607Z,1032.14
2017-01-20T00:07:09.017Z,1032.19
2017-01-20T00:08:20.407Z,1032.14
2017-01-20T00:09:32.011Z,1032.11
2017-01-20T00:10:43.460Z,1032.12
2017-01-20T00:11:54.844Z,1032.12
2017-01-20T00:13:06.237Z,1032.12
2017-01-20T00:14:17.635Z,1032.08
2017-01-20T00:15:29.238Z,1032.06
2017-01-20T00:16:40.688Z,1032.03
2017-01-20T00:17:52.277Z,1032.04
2017-01-20T00:19:03.691Z,1032.08
2017-01-20T00:20:15.084Z,1032.04
2017-01-20T00:21:26.474Z,1032.11
2017-01-20T00:22:37.918Z,1032.04
2017-01-20T00:23:49.509Z,1032.02
2017-01-20T00:25:00.905Z,1032.07
2017-01-20T00:26:12.296Z,1032.1
2017-01-20T00:27:23.695Z,1032.04
2017-01-20T00:28:35.131Z,1032.04
2017-01-20T00:29:46.526Z,1032.01
2017-01-20T00:30:58.124Z,1031.95
2017-01-20T00:32:09.513Z,1031.93
2017-01-20T00:33:20.912Z,1031.9
2017-01-20T00:34:32.353Z,1031.94
2017-01-20T00:35:43.744Z,1031.89
2017-01-20T00:36:55.342Z,1031.89
2017-01-20T00:38:06.945Z,1031.91
2017-01-20T00:39:18.341Z,1031.92
2017-01-20T00:40:29.990Z,1031.85
2017-01-20T00:41:41.387Z,1031.82
2017-01-20T00:42:52.788Z,1031.87
2017-01-20T00:44:04.183Z,1031.8
2017-01-20T00:45:15.569Z,1031.82
2017-01-20T00:46:27.007Z,1031.84
2017-01-20T00:47:38.402Z,1031.8
2017-01-20T00:48:49.793Z,1031.8
2017-01-20T00:50:01.184Z,1031.81
2017-01-20T00:51:12.585Z,1031.76
2017-01-20T00:52:24.030Z,1031.75
2017-01-20T00:53:35.426Z,1031.75
2017-01-20T00:54:46.845Z,1031.79
2017-01-20T00:55:58.246Z,1031.72
2017-01-20T00:57:09.652Z,1031.72
2017-01-20T00:58:21.291Z,1031.69
2017-01-20T00:59:32.682Z,1031.68
2017-01-20T01:00:44.074Z,1031.7
2017-01-20T01:01:55.475Z,1031.68
2017-01-20T01:03:06.866Z,1031.67
2017-01-20T01:04:18.301Z,1031.66
2017-01-20T01:05:29.689Z,1031.66
2017-01-20T01:06:41.088Z,1031.68
2017-01-20T01:07:52.484Z,1031.65
2017-01-20T01:09:03.871Z,1031.6
2017-01-20T01:10:15.316Z,1031.64
2017-01-20T01:11:26.708Z,1031.61
2017-01-20T01:12:38.105Z,1031.63
2017-01-20T01:13:49.500Z,1031.59
2017-01-20T01:15:00.892Z,1031.63
2017-01-20T01:16:12.337Z,1031.62
2017-01-20T01:17:23.734Z,1031.65
2017-01-20T01:18:35.124Z,1031.6
2017-01-20T01:19:46.516Z,1031.62
2017-01-20T01:20:57.907Z,1031.68
2017-01-20T01:22:09.346Z,1031.66
2017-01-20T01:23:20.944Z,1031.72
2017-01-20T01:24:32.534Z,1031.69
2017-01-20T01:25:44.130Z,1031.76
2017-01-20T01:26:55.734Z,1031.78
2017-01-20T01:28:07.174Z,1031.82
2017-01-20T01:29:18.791Z,1031.78
2017-01-20T01:30:30.184Z,1031.78
2017-01-20T01:31:41.583Z,1031.77
2017-01-20T01:32:52.976Z,1031.74
2017-01-20T01:34:04.418Z,1031.76
2017-01-20T01:35:15.815Z,1031.77
2017-01-20T01:36:27.210Z,1031.73
2017-01-20T01:37:38.605Z,1031.71
2017-01-20T01:38:50.002Z,1031.74
2017-01-20T01:40:01.451Z,1031.76
2017-01-20T01:41:12.846Z,1031.76
2017-01-20T01:42:24.443Z,1031.75
2017-01-20T01:43:35.828Z,1031.72
2017-01-20T01:44:47.216Z,1031.7
2017-01-20T01:45:58.860Z,1031.69
2017-01-20T01:47:10.458Z,1031.7
2017-01-20T01:48:21.852Z,1031.65
2017-01-20T01:49:33.247Z,1031.69
2017-01-20T01:50:44.642Z,1031.71
2017-01-20T01:51:56.085Z,1031.71
2017-01-20T01:53:07.478Z,1031.66
2017-01-20T01:54:18.867Z,1031.64
2017-01-20T01:55:30.256Z,1031.69
2017-01-20T01:56:41.642Z,1031.64
2017-01-20T01:57:53.490Z,1031.65
2017-01-20T01:59:04.883Z,1031.67
2017-01-20T02:00:16.279Z,1031.62
2017-01-20T02:01:27.677Z,1031.66
2017-01-20T02:02:39.077Z,1031.65
2017-01-20T02:03:50.525Z,1031.67
2017-01-20T02:05:01.923Z,1031.72
2017-01-20T02:06:13.309Z,1031.72
2017-01-20T02:07:24.696Z,1031.69
2017-01-20T02:08:36.090Z,1031.73
2017-01-20T02:09:47.539Z,1031.7
2017-01-20T02:10:59.132Z,1031.7
2017-01-20T02:12:10.529Z,1031.74
2017-01-20T02:13:21.918Z,1031.69
2017-01-20T02:14:33.513Z,1031.7
2017-01-20T02:15:44.980Z,1031.71
2017-01-20T02:16:56.375Z,1031.69
2017-01-20T02:18:07.762Z,1031.67
2017-01-20T02:19:19.377Z,1031.7
2017-01-20T02:20:30.777Z,1031.75
2017-01-20T02:21:42.218Z,1031.72
2017-01-20T02:22:53.611Z,1031.77
2017-01-20T02:24:05.007Z,1031.75
2017-01-20T02:25:16.398Z,1031.73
2017-01-20T02:26:27.788Z,1031.76
2017-01-20T02:27:39.233Z,1031.72
2017-01-20T02:28:50.616Z,1031.74
2017-01-20T02:30:02.011Z,1031.72
2017-01-20T02:31:13.407Z,1031.72
2017-01-20T02:32:24.807Z,1031.68
2017-01-20T02:33:36.253Z,1031.66
2017-01-20T02:34:47.845Z,1031.72
2017-01-20T02:35:59.255Z,1031.7
2017-01-20T02:37:10.855Z,1031.68
2017-01-20T02:38:22.245Z,1031.67
2017-01-20T02:39:33.686Z,1031.64
2017-01-20T02:40:45.277Z,1031.59
2017-01-20T02:41:56.670Z,1031.59
2017-01-20T02:43:08.268Z,1031.62
2017-01-20T02:44:19.669Z,1031.62
2017-01-20T02:45:31.316Z,1031.59
2017-01-20T02:46:42.713Z,1031.58
2017-01-20T02:47:54.114Z,1031.56
2017-01-20T02:49:05.699Z,1031.57
2017-01-20T02:50:17.093Z,1031.57
2017-01-20T02:51:28.527Z,1031.59
2017-01-20T02:52:39.914Z,1031.63
2017-01-20T02:53:51.305Z,1031.57
2017-01-20T02:55:02.696Z,1031.61
2017-01-20T02:56:14.086Z,1031.52
2017-01-20T02:57:25.551Z,1031.54
2017-01-20T02:58:36.945Z,1031.53
2017-01-20T02:59:48.339Z,1031.55
2017-01-20T03:00:59.738Z,1031.52
2017-01-20T03:02:11.130Z,1031.57
2017-01-20T03:03:22.579Z,1031.56
2017-01-20T03:04:34.168Z,1031.53
2017-01-20T03:05:45.564Z,1031.48
2017-01-20T03:06:56.956Z,1031.57
2017-01-20T03:08:08.551Z,1031.55
2017-01-20T03:09:19.992Z,1031.56
2017-01-20T03:10:31.378Z,1031.53
2017-01-20T03:11:42.767Z,1031.53
2017-01-20T03:12:54.172Z,1031.53
2017-01-20T03:14:05.574Z,1031.53
2017-01-20T03:15:17.017Z,1031.54
2017-01-20T03:16:28.613Z,1031.53
2017-01-20T03:17:40.007Z,1031.49
2017-01-20T03:18:51.395Z,1031.53
2017-01-20T03:20:02.777Z,1031.48
2017-01-20T03:21:14.416Z,1031.49
2017-01-20T03:22:25.807Z,1031.45
2017-01-20T03:23:37.193Z,1031.43
2017-01-20T03:24:48.584Z,1031.48
2017-01-20T03:25:59.980Z,1031.42
2017-01-20T03:27:11.427Z,1031.43
2017-01-20T03:28:22.852Z,1031.46
2017-01-20T03:29:34.457Z,1031.42
2017-01-20T03:30:46.048Z,1031.41
2017-01-20T03:31:57.642Z,1031.38
2017-01-20T03:33:09.084Z,1031.43
2017-01-20T03:34:20.500Z,1031.43
2017-01-20T03:35:31.890Z,1031.48
2017-01-20T03:36:43.268Z,1031.42
2017-01-20T03:37:54.665Z,1031.48
2017-01-20T03:39:06.108Z,1031.44
2017-01-20T03:40:17.502Z,1031.47
2017-01-20T03:41:28.890Z,1031.49
2017-01-20T03:42:40.285Z,1031.52
2017-01-20T03:43:51.671Z,1031.51
2017-01-20T03:45:03.323Z,1031.54
2017-01-20T03:46:15.116Z,1031.52
2017-01-20T03:47:26.507Z,1031.56
2017-01-20T03:48:37.897Z,1031.52
2017-01-20T03:49:49.286Z,1031.57
2017-01-20T03:51:00.735Z,1031.59
2017-01-20T03:52:12.135Z,1031.6
2017-01-20T03:53:23.528Z,1031.58
2017-01-20T03:54:34.917Z,1031.58
2017-01-20T03:55:46.713Z,1031.58
2017-01-20T03:56:58.147Z,1031.53
2017-01-20T03:58:09.541Z,1031.54
2017-01-20T03:59:21.131Z,1031.55
2017-01-20T04:00:32.519Z,1031.6
2017-01-20T04:01:43.906Z,1031.55
2017-01-20T04:02:55.552Z,1031.54
2017-01-20T04:04:06.949Z,1031.56
2017-01-20T04:05:18.364Z,1031.58
2017-01-20T04:06:29.759Z,1031.58
2017-01-20T04:07:41.354Z,1031.54
2017-01-20T04:08:52.813Z,1031.56
2017-01-20T04:10:04.413Z,1031.55
2017-01-20T04:11:15.810Z,1031.58
2017-01-20T04:12:27.204Z,1031.61
2017-01-20T04:13:38.609Z,1031.55
2017-01-20T04:14:50.056Z,1031.54
2017-01-20T04:16:01.450Z,1031.54
2017-01-20T04:17:12.845Z,1031.57
2017-01-20T04:18:24.247Z,1031.62
2017-01-20T04:19:35.645Z,1031.54
2017-01-20T04:20:47.100Z,1031.53
2017-01-20T04:21:58.499Z,1031.59
2017-01-20T04:23:09.902Z,1031.5
2017-01-20T04:24:21.490Z,1031.56
2017-01-20T04:25:32.882Z,1031.53
2017-01-20T04:26:44.330Z,1031.52
2017-01-20T04:27:55.719Z,1031.54
2017-01-20T04:29:07.138Z,1031.52
2017-01-20T04:30:18.556Z,1031.46
2017-01-20T04:31:29.940Z,1031.44
2017-01-20T04:32:41.382Z,1031.44
2017-01-20T04:33:53.172Z,1031.43
2017-01-20T04:35:04.573Z,1031.47
2017-01-20T04:36:15.962Z,1031.48
2017-01-20T04:37:27.351Z,1031.46
2017-01-20T04:38:38.818Z,1031.41
2017-01-20T04:39:50.205Z,1031.46
2017-01-20T04:41:01.590Z,1031.38
2017-01-20T04:42:12.988Z,1031.34
2017-01-20T04:43:24.388Z,1031.36
2017-01-20T04:44:35.836Z,1031.37
2017-01-20T04:45:47.229Z,1031.34
2017-01-20T04:46:58.619Z,1031.38
2017-01-20T04:48:10.010Z,1031.32
2017-01-20T04:49:21.411Z,1031.38
2017-01-20T04:50:32.856Z,1031.34
2017-01-20T04:51:44.248Z,1031.34
2017-01-20T04:52:55.643Z,1031.36
2017-01-20T04:54:07.037Z,1031.33
2017-01-20T04:55:18.427Z,1031.35
2017-01-20T04:56:29.872Z,1031.3
2017-01-20T04:57:41.293Z,1031.29
2017-01-20T04:58:52.687Z,1031.3
2017-01-20T05:00:04.283Z,1031.26
2017-01-20T05:01:15.674Z,1031.27
2017-01-20T05:02:27.116Z,1031.29
2017-01-20T05:03:38.503Z,1031.29
2017-01-20T05:04:49.893Z,1031.31
2017-01-20T05:06:01.685Z,1031.29
2017-01-20T05:07:13.282Z,1031.28
2017-01-20T05:08:24.727Z,1031.3
2017-01-20T05:09:36.128Z,1031.28
2017-01-20T05:10:47.528Z,1031.32
2017-01-20T05:11:59.124Z,1031.32
2017-01-20T05:13:10.721Z,1031.3
2017-01-20T05:14:22.197Z,1031.27
2017-01-20T05:15:33.586Z,1031.25
2017-01-20T05:16:44.992Z,1031.23
2017-01-20T05:17:56.385Z,1031.27
2017-01-20T05:19:07.777Z,1031.35
2017-01-20T05:20:19.226Z,1031.28
2017-01-20T05:21:30.647Z,1031.28
2017-01-20T05:22:42.241Z,1031.3
2017-01-20T05:23:53.628Z,1031.27
2017-01-20T05:25:05.031Z,1031.28
2017-01-20T05:26:16.670Z,1031.25
2017-01-20T05:27:28.065Z,1031.26
2017-01-20T05:28:39.463Z,1031.2
2017-01-20T05:29:51.054Z,1031.25
2017-01-20T05:31:02.450Z,1031.25
2017-01-20T05:32:13.890Z,1031.21
2017-01-20T05:33:25.303Z,1031.21
2017-01-20T05:34:36.691Z,1031.24
2017-01-20T05:35:48.284Z,1031.19
2017-01-20T05:36:59.880Z,1031.19
2017-01-20T05:38:11.732Z,1031.22
2017-01-20T05:39:23.124Z,1031.23
2017-01-20T05:40:34.525Z,1031.24
2017-01-20T05:41:46.122Z,1031.28
2017-01-20T05:42:57.726Z,1031.23
2017-01-20T05:44:09.168Z,1031.23
2017-01-20T05:45:20.565Z,1031.25
2017-01-20T05:46:32.167Z,1031.21
2017-01-20T05:47:43.766Z,1031.23
2017-01-20T05:48:55.153Z,1031.22
2017-01-20T05:50:06.603Z,1031.2
2017-01-20T05:51:17.998Z,1031.26
2017-01-20T05:52:29.400Z,1031.29
2017-01-20T05:53:40.803Z,1031.27
2017-01-20T05:54:52.195Z,1031.21
2017-01-20T05:56:03.642Z,1031.22
2017-01-20T05:57:15.234Z,1031.18
2017-01-20T05:58:26.634Z,1031.21
2017-01-20T05:59:38.057Z,1031.25
2017-01-20T06:00:49.449Z,1031.25
2017-01-20T06:02:00.893Z,1031.23
2017-01-20T06:03:12.286Z,1031.27
2017-01-20T06:04:23.685Z,1031.2
2017-01-20T06:05:35.080Z,1031.23
2017-01-20T06:06:46.475Z,1031.19
2017-01-20T06:07:58.117Z,1031.22
2017-01-20T06:09:09.506Z,1031.24
2017-01-20T06:10:21.097Z,1031.25
2017-01-20T06:11:32.695Z,1031.19
2017-01-20T06:12:44.095Z,1031.19
2017-01-20T06:13:55.540Z,1031.2
2017-01-20T06:15:06.949Z,1031.18
2017-01-20T06:16:18.543Z,1031.18
2017-01-20T06:17:29.941Z,1031.21
2017-01-20T06:18:41.342Z,1031.17
2017-01-20T06:19:52.791Z,1031.14
2017-01-20T06:21:04.386Z,1031.13
2017-01-20T06:22:15.780Z,1031.15
2017-01-20T06:23:27.378Z,1031.18
2017-01-20T06:24:38.768Z,1031.17
2017-01-20T06:25:50.411Z,1031.19
2017-01-20T06:27:01.811Z,1031.2
2017-01-20T06:28:13.215Z,1031.2
2017-01-20T06:29:25.005Z,1031.22
2017-01-20T06:30:36.602Z,1031.25
2017-01-20T06:31:48.041Z,1031.18
2017-01-20T06:32:59.469Z,1031.16
2017-01-20T06:34:10.875Z,1031.22
2017-01-20T06:35:22.273Z,1031.21
2017-01-20T06:36:33.870Z,1031.18
2017-01-20T06:37:45.311Z,1031.15
2017-01-20T06:38:56.706Z,1031.16
2017-01-20T06:40:08.104Z,1031.1
2017-01-20T06:41:19.703Z,1031.11
2017-01-20T06:42:31.306Z,1031.1
2017-01-20T06:43:42.758Z,1031.13
2017-01-20T06:44:54.157Z,1031.11
2017-01-20T06:46:05.551Z,1031.13
2017-01-20T06:47:16.950Z,1031.11
2017-01-20T06:48:28.346Z,1031.15
2017-01-20T06:49:39.795Z,1031.15
2017-01-20T06:50:51.193Z,1031.17
2017-01-20T06:52:02.803Z,1031.15
2017-01-20T06:53:14.196Z,1031.13
2017-01-20T06:54:25.594Z,1031.11
2017-01-20T06:55:37.039Z,1031.11
2017-01-20T06:56:48.646Z,1031.08
2017-01-20T06:58:00.036Z,1031.12
2017-01-20T06:59:11.436Z,1031.13
2017-01-20T07:00:23.024Z,1031.1
2017-01-20T07:01:34.471Z,1031.14
2017-01-20T07:02:45.864Z,1031.16
2017-01-20T07:03:57.257Z,1031.15
2017-01-20T07:05:08.654Z,1031.13
2017-01-20T07:06:20.241Z,1031.19
2017-01-20T07:07:31.678Z,1031.22
2017-01-20T07:08:43.097Z,1031.17
2017-01-20T07:09:54.488Z,1031.16
2017-01-20T07:11:05.892Z,1031.17
2017-01-20T07:12:17.289Z,1031.16
2017-01-20T07:13:28.960Z,1031.18
2017-01-20T07:14:40.354Z,1031.16
2017-01-20T07:15:51.774Z,1031.2
2017-01-20T07:17:03.173Z,1031.2
2017-01-20T07:18:14.572Z,1031.21
2017-01-20T07:19:26.016Z,1031.23
2017-01-20T07:20:37.408Z,1031.23
2017-01-20T07:21:48.807Z,1031.22
2017-01-20T07:23:00.194Z,1031.22
2017-01-20T07:24:11.581Z,1031.19
2017-01-20T07:25:23.230Z,1031.24
2017-01-20T07:26:34.634Z,1031.2
2017-01-20T07:27:46.025Z,1031.21
2017-01-20T07:28:57.621Z,1031.2
2017-01-20T07:30:09.027Z,1031.23
2017-01-20T07:31:20.495Z,1031.23
2017-01-20T07:32:31.886Z,1031.27
2017-01-20T07:33:43.272Z,1031.27
2017-01-20T07:34:54.863Z,1031.27
2017-01-20T07:36:06.467Z,1031.25
2017-01-20T07:37:17.913Z,1031.3
2017-01-20T07:38:29.314Z,1031.32
2017-01-20T07:39:40.901Z,1031.34
2017-01-20T07:40:52.294Z,1031.38
2017-01-20T07:42:03.703Z,1031.39
2017-01-20T07:43:15.147Z,1031.39
2017-01-20T07:44:26.545Z,1031.35
2017-01-20T07:45:37.970Z,1031.39
2017-01-20T07:46:49.373Z,1031.42
2017-01-20T07:48:00.765Z,1031.39
2017-01-20T07:49:12.212Z,1031.34
2017-01-20T07:50:23.609Z,1031.4
2017-01-20T07:51:35.208Z,1031.32
2017-01-20T07:52:46.833Z,1031.32
2017-01-20T07:53:58.224Z,1031.31
2017-01-20T07:55:09.668Z,1031.33
2017-01-20T07:56:21.061Z,1031.34
2017-01-20T07:57:32.453Z,1031.33
2017-01-20T07:58:43.841Z,1031.28
2017-01-20T07:59:55.222Z,1031.3
2017-01-20T08:01:06.669Z,1031.34
2017-01-20T08:02:18.473Z,1031.3
2017-01-20T08:03:29.866Z,1031.32
2017-01-20T08:04:41.259Z,1031.38
2017-01-20T08:05:52.895Z,1031.4
2017-01-20T08:07:04.343Z,1031.42
2017-01-20T08:08:15.761Z,1031.4
2017-01-20T08:09:27.160Z,1031.45
2017-01-20T08:10:38.550Z,1031.47
2017-01-20T08:11:49.944Z,1031.46
2017-01-20T08:13:01.387Z,1031.5
2017-01-20T08:14:12.786Z,1031.5
2017-01-20T08:15:24.232Z,1031.47
2017-01-20T08:16:35.624Z,1031.49
2017-01-20T08:17:47.019Z,1031.49
2017-01-20T08:18:58.466Z,1031.48
2017-01-20T08:20:09.870Z,1031.53
2017-01-20T08:21:21.461Z,1031.53
2017-01-20T08:22:32.862Z,1031.53
2017-01-20T08:23:44.255Z,1031.52
2017-01-20T08:24:55.729Z,1031.54
2017-01-20T08:26:07.317Z,1031.54
2017-01-20T08:27:19.111Z,1031.52
2017-01-20T08:28:30.510Z,1031.51
2017-01-20T08:29:41.903Z,1031.55
2017-01-20T08:30:53.552Z,1031.5
2017-01-20T08:32:05.149Z,1031.46
2017-01-20T08:33:16.547Z,1031.48
2017-01-20T08:34:27.931Z,1031.48
2017-01-20T08:35:39.320Z,1031.45
2017-01-20T08:36:50.790Z,1031.44
2017-01-20T08:38:02.184Z,1031.5
2017-01-20T08:39:13.580Z,1031.51
2017-01-20T08:40:24.979Z,1031.49
2017-01-20T08:41:36.394Z,1031.51
2017-01-20T08:42:47.835Z,1031.52
2017-01-20T08:43:59.229Z,1031.52
2017-01-20T08:45:10.626Z,1031.46
2017-01-20T08:46:22.224Z,1031.49
2017-01-20T08:47:33.624Z,1031.49
2017-01-20T08:48:45.077Z,1031.49
2017-01-20T08:49:56.469Z,1031.48
2017-01-20T08:51:07.870Z,1031.49
2017-01-20T08:52:19.265Z,1031.49
2017-01-20T08:53:30.870Z,1031.47
2017-01-20T08:54:42.320Z,1031.47
2017-01-20T08:55:53.715Z,1031.43
2017-01-20T08:57:05.108Z,1031.44
2017-01-20T08:58:16.706Z,1031.4
2017-01-20T08:59:28.107Z,1031.39
2017-01-20T09:00:39.551Z,1031.39
2017-01-20T09:01:50.946Z,1031.4
2017-01-20T09:03:02.550Z,1031.37
2017-01-20T09:04:13.961Z,1031.44
2017-01-20T09:05:25.361Z,1031.43
2017-01-20T09:06:37.015Z,1031.39
2017-01-20T09:07:48.418Z,1031.4
2017-01-20T09:09:00.021Z,1031.35
2017-01-20T09:10:11.425Z,1031.35
2017-01-20T09:11:22.826Z,1031.35
2017-01-20T09:12:34.300Z,1031.35
2017-01-20T09:13:45.705Z,1031.34
2017-01-20T09:14:57.103Z,1031.36
2017-01-20T09:16:08.503Z,1031.37
2017-01-20T09:17:19.910Z,1031.41
2017-01-20T09:18:31.562Z,1031.38
2017-01-20T09:19:42.961Z,1031.38
2017-01-20T09:20:54.390Z,1031.34
2017-01-20T09:22:05.786Z,1031.36
2017-01-20T09:23:17.176Z,1031.37
2017-01-20T09:24:28.628Z,1031.38
2017-01-20T09:25:40.229Z,1031.37
2017-01-20T09:26:51.635Z,1031.32
2017-01-20T09:28:03.043Z,1031.4
2017-01-20T09:29:14.443Z,1031.36
2017-01-20T09:30:25.897Z,1031.42
2017-01-20T09:31:37.303Z,1031.41
2017-01-20T09:32:48.703Z,1031.4
2017-01-20T09:34:00.310Z,1031.44
2017-01-20T09:35:11.721Z,1031.45
2017-01-20T09:36:23.177Z,1031.51
2017-01-20T09:37:34.588Z,1031.51
2017-01-20T09:38:46.024Z,1031.48
2017-01-20T09:39:57.636Z,1031.54
2017-01-20T09:41:09.281Z,1031.54
2017-01-20T09:42:21.137Z,1031.53
2017-01-20T09:43:32.544Z,1031.58
2017-01-20T09:44:43.951Z,1031.58
2017-01-20T09:45:55.360Z,1031.63
2017-01-20T09:47:06.768Z,1031.59
2017-01-20T09:48:18.220Z,1031.58
2017-01-20T09:49:29.624Z,1031.57
2017-01-20T09:50:41.030Z,1031.56
2017-01-20T09:51:52.654Z,1031.57
2017-01-20T09:53:04.055Z,1031.54
2017-01-20T09:54:15.520Z,1031.52
2017-01-20T09:55:26.928Z,1031.52
2017-01-20T09:56:38.331Z,1031.52
2017-01-20T09:57:49.747Z,1031.51
2017-01-20T09:59:01.562Z,1031.5
2017-01-20T10:00:13.021Z,1031.51
2017-01-20T10:01:24.429Z,1031.53
2017-01-20T10:02:35.843Z,1031.54
2017-01-20T10:03:47.250Z,1031.55
2017-01-20T10:04:58.657Z,1031.56
2017-01-20T10:06:10.119Z,1031.59
2017-01-20T10:07:21.538Z,1031.6
2017-01-20T10:08:32.957Z,1031.6
2017-01-20T10:09:44.365Z,1031.63
2017-01-20T10:10:55.979Z,1031.63
2017-01-20T10:12:07.643Z,1031.64
2017-01-20T10:13:19.252Z,1031.63
2017-01-20T10:14:30.663Z,1031.6
2017-01-20T10:15:42.067Z,1031.58
2017-01-20T10:16:53.704Z,1031.59
2017-01-20T10:18:05.164Z,1031.58
2017-01-20T10:19:16.571Z,1031.62
2017-01-20T10:20:27.984Z,1031.62
2017-01-20T10:21:39.395Z,1031.61
2017-01-20T10:22:50.814Z,1031.59
2017-01-20T10:24:02.467Z,1031.58
2017-01-20T10:25:13.878Z,1031.53
2017-01-20T10:26:25.287Z,1031.5
2017-01-20T10:27:36.699Z,1031.55
2017-01-20T10:28:48.108Z,1031.53
2017-01-20T10:29:59.570Z,1031.47
2017-01-20T10:31:10.978Z,1031.49
2017-01-20T10:32:22.378Z,1031.46
2017-01-20T10:33:33.795Z,1031.48
2017-01-20T10:34:45.404Z,1031.47
2017-01-20T10:35:57.075Z,1031.44
2017-01-20T10:37:08.506Z,1031.41
2017-01-20T10:38:19.925Z,1031.39
2017-01-20T10:39:31.329Z,1031.4
2017-01-20T10:40:42.743Z,1031.36
2017-01-20T10:41:54.208Z,1031.38
2017-01-20T10:43:05.626Z,1031.35
2017-01-20T10:44:17.036Z,1031.37
2017-01-20T10:45:28.668Z,1031.34
2017-01-20T10:46:40.088Z,1031.37
2017-01-20T10:47:51.548Z,1031.32
2017-01-20T10:49:02.958Z,1031.33
2017-01-20T10:50:14.373Z,1031.31
2017-01-20T10:51:25.780Z,1031.31
2017-01-20T10:52:37.394Z,1031.23
2017-01-20T10:53:48.856Z,1031.3
2017-01-20T10:55:00.270Z,1031.23
2017-01-20T10:56:11.685Z,1031.17
2017-01-20T10:57:23.099Z,1031.17
2017-01-20T10:58:34.513Z,1031.15
2017-01-20T10:59:46.374Z,1031.18
2017-01-20T11:00:57.989Z,1031.18
2017-01-20T11:02:09.400Z,1031.17
2017-01-20T11:03:20.808Z,1031.16
2017-01-20T11:04:32.243Z,1031.15
2017-01-20T11:05:43.705Z,1031.15
2017-01-20T11:06:55.114Z,1031.13
2017-01-20T11:08:06.527Z,1031.13
2017-01-20T11:09:17.938Z,1031.11
2017-01-20T11:10:29.352Z,1031.09
2017-01-20T11:11:40.819Z,1031.1
2017-01-20T11:12:52.228Z,1031.09
2017-01-20T11:14:03.632Z,1031.09
2017-01-20T11:15:15.036Z,1031.12
2017-01-20T11:16:26.842Z,1031.1
2017-01-20T11:17:38.302Z,1031.08
2017-01-20T11:18:49.713Z,1031.09
2017-01-20T11:20:01.133Z,1031.07
2017-01-20T11:21:12.551Z,1031.08
2017-01-20T11:22:23.968Z,1031.05
2017-01-20T11:23:35.418Z,1031.04
2017-01-20T11:24:46.829Z,1031
2017-01-20T11:25:58.249Z,1031.03
2017-01-20T11:27:09.660Z,1030.95
2017-01-20T11:28:21.075Z,1030.96
2017-01-20T11:29:32.549Z,1030.99
2017-01-20T11:30:43.959Z,1030.96
2017-01-20T11:31:55.373Z,1030.95
2017-01-20T11:33:06.787Z,1030.95
2017-01-20T11:34:18.199Z,1030.91
2017-01-20T11:35:29.867Z,1030.94
2017-01-20T11:36:41.477Z,1030.87
2017-01-20T11:37:52.889Z,1030.87
2017-01-20T11:39:04.301Z,1030.85
2017-01-20T11:40:15.904Z,1030.84
2017-01-20T11:41:27.574Z,1030.81
2017-01-20T11:42:38.988Z,1030.84
2017-01-20T11:43:50.405Z,1030.89
2017-01-20T11:45:01.820Z,1030.94
2017-01-20T11:46:13.224Z,1030.9
2017-01-20T11:47:24.631Z,1030.89
2017-01-20T11:48:36.051Z,1030.83
2017-01-20T11:49:47.461Z,1030.86
2017-01-20T11:50:58.871Z,1030.83
2017-01-20T11:52:10.279Z,1030.86
2017-01-20T11:53:21.948Z,1030.86
2017-01-20T11:54:33.360Z,1030.85
2017-01-20T11:55:44.769Z,1030.85
2017-01-20T11:56:56.371Z,1030.81
2017-01-20T11:58:07.828Z,1030.83
2017-01-20T11:59:19.636Z,1030.78
2017-01-20T12:00:31.042Z,1030.69
2017-01-20T12:01:42.451Z,1030.69
2017-01-20T12:02:53.851Z,1030.65
2017-01-20T12:04:05.509Z,1030.64
2017-01-20T12:05:16.917Z,1030.6
2017-01-20T12:06:28.332Z,1030.6
2017-01-20T12:07:39.939Z,1030.56
2017-01-20T12:08:51.341Z,1030.59
2017-01-20T12:10:03.004Z,1030.62
2017-01-20T12:11:14.411Z,1030.62
2017-01-20T12:12:26.026Z,1030.58
2017-01-20T12:13:37.445Z,1030.59
2017-01-20T12:14:48.850Z,1030.52
2017-01-20T12:16:00.334Z,1030.48
2017-01-20T12:17:11.942Z,1030.5
2017-01-20T12:18:23.350Z,1030.48
2017-01-20T12:19:34.764Z,1030.46
2017-01-20T12:20:46.177Z,1030.46
2017-01-20T12:21:57.663Z,1030.43
2017-01-20T12:23:09.081Z,1030.39
2017-01-20T12:24:20.487Z,1030.37
2017-01-20T12:25:31.892Z,1030.37
2017-01-20T12:26:43.303Z,1030.35
2017-01-20T12:27:54.969Z,1030.38
2017-01-20T12:29:06.406Z,1030.33
2017-01-20T12:30:17.817Z,1030.3
2017-01-20T12:31:29.223Z,1030.3
2017-01-20T12:32:40.632Z,1030.27
2017-01-20T12:33:52.088Z,1030.31
2017-01-20T12:35:03.499Z,1030.29
2017-01-20T12:36:14.902Z,1030.3
2017-01-20T12:37:26.304Z,1030.3
2017-01-20T12:38:37.707Z,1030.3
2017-01-20T12:39:49.169Z,1030.28
2017-01-20T12:41:00.811Z,1030.29
2017-01-20T12:42:12.228Z,1030.26
2017-01-20T12:43:23.660Z,1030.25
2017-01-20T12:44:35.062Z,1030.3
2017-01-20T12:45:46.523Z,1030.25
2017-01-20T12:46:57.926Z,1030.25
2017-01-20T12:48:09.340Z,1030.23
2017-01-20T12:49:20.746Z,1030.23
2017-01-20T12:50:32.369Z,1030.22
2017-01-20T12:51:43.821Z,1030.21
2017-01-20T12:52:55.225Z,1030.19
2017-01-20T12:54:06.626Z,1030.17
2017-01-20T12:55:18.238Z,1030.19
2017-01-20T12:56:29.651Z,1030.2
2017-01-20T12:57:41.116Z,1030.17
2017-01-20T12:58:52.736Z,1030.16
2017-01-20T13:00:04.345Z,1030.15
2017-01-20T13:01:15.753Z,1030.16
2017-01-20T13:02:27.166Z,1030.07
2017-01-20T13:03:38.633Z,1030.08
2017-01-20T13:04:50.049Z,1030.07
2017-01-20T13:06:01.460Z,1030.06
2017-01-20T13:07:12.877Z,1030.05
2017-01-20T13:08:24.277Z,1030.01
2017-01-20T13:09:35.733Z,1030.04
2017-01-20T13:10:47.143Z,1029.98
2017-01-20T13:11:58.547Z,1030
2017-01-20T13:13:10.157Z,1029.96
2017-01-20T13:14:21.566Z,1030.01
2017-01-20T13:15:33.044Z,1029.96
2017-01-20T13:16:44.445Z,1029.96
2017-01-20T13:17:55.857Z,1029.96
2017-01-20T13:19:07.467Z,1029.96
2017-01-20T13:20:18.896Z,1029.93
2017-01-20T13:21:30.352Z,1029.95
2017-01-20T13:22:41.757Z,1029.95
2017-01-20T13:23:53.166Z,1029.96
2017-01-20T13:25:04.572Z,1029.95
2017-01-20T13:26:15.984Z,1029.94
2017-01-20T13:27:27.636Z,1029.95
2017-01-20T13:28:39.046Z,1029.95
2017-01-20T13:29:50.657Z,1029.91
2017-01-20T13:31:02.061Z,1029.86
2017-01-20T13:32:13.476Z,1029.89
2017-01-20T13:33:25.136Z,1029.87
2017-01-20T13:34:36.537Z,1029.88
2017-01-20T13:35:47.941Z,1029.88
2017-01-20T13:36:59.354Z,1029.9
2017-01-20T13:38:10.754Z,1029.88
2017-01-20T13:39:22.234Z,1029.83
2017-01-20T13:40:33.642Z,1029.84
2017-01-20T13:41:45.043Z,1029.84
2017-01-20T13:42:56.463Z,1029.83
2017-01-20T13:44:07.859Z,1029.79
2017-01-20T13:45:19.318Z,1029.81
2017-01-20T13:46:30.731Z,1029.79
2017-01-20T13:47:42.142Z,1029.82
2017-01-20T13:48:53.758Z,1029.8
2017-01-20T13:50:05.401Z,1029.79
2017-01-20T13:51:16.853Z,1029.81
2017-01-20T13:52:28.287Z,1029.8
2017-01-20T13:53:39.695Z,1029.77
2017-01-20T13:54:51.112Z,1029.8
2017-01-20T13:56:02.515Z,1029.79
2017-01-20T13:57:13.975Z,1029.77
2017-01-20T13:58:25.387Z,1029.75
2017-01-20T13:59:36.998Z,1029.78
2017-01-20T14:00:48.404Z,1029.75
2017-01-20T14:01:59.809Z,1029.75
2017-01-20T14:03:11.260Z,1029.74
2017-01-20T14:04:22.669Z,1029.73
2017-01-20T14:05:34.278Z,1029.69
2017-01-20T14:06:45.686Z,1029.7
2017-01-20T14:07:57.095Z,1029.71
2017-01-20T14:09:08.563Z,1029.75
2017-01-20T14:10:19.965Z,1029.71
2017-01-20T14:11:31.369Z,1029.72
2017-01-20T14:12:42.773Z,1029.72
2017-01-20T14:13:54.175Z,1029.69
2017-01-20T14:15:05.627Z,1029.77
2017-01-20T14:16:17.031Z,1029.8
2017-01-20T14:17:28.428Z,1029.82
2017-01-20T14:18:40.029Z,1029.78
2017-01-20T14:19:51.646Z,1029.81
2017-01-20T14:21:03.097Z,1029.8
2017-01-20T14:22:14.503Z,1029.8
2017-01-20T14:23:25.904Z,1029.74
2017-01-20T14:24:37.514Z,1029.77
2017-01-20T14:25:48.923Z,1029.72
2017-01-20T14:27:00.369Z,1029.73